Terminal Aerodrome Forecast
Issued by NWS

Home | Current Version | Previous Version | Text Only | Print | Product List | Glossary On
Versions: 1 2 3 4 5 6 7 8 9 10 11 12 13
000
FTUS43 KPAH 261736
TAFCGI
TAF
KCGI 261736Z 2618/2718 20015G23KT P6SM SCT025 BKN035
      TEMPO 2618/2622 6SM -DZ BKN025
     FM270100 20009KT P6SM SCT030 BKN050
     FM270800 21005KT P6SM SCT009 BKN015
      TEMPO 2709/2713 5SM BR=

USA.gov is the U.S. government's official web portal to all federal, state and local government web resources and services.